sensor_id;sensor_type;location;lat;lon;timestamp;temperature;humidity
39847;DHT22;25517;52.422;10.782;2023-06-10T00:02:26;16.20;96.90
39847;DHT22;25517;52.422;10.782;2023-06-10T00:04:53;16.20;97.70
39847;DHT22;25517;52.422;10.782;2023-06-10T00:07:19;16.10;98.90
39847;DHT22;25517;52.422;10.782;2023-06-10T00:09:49;16.00;99.90
39847;DHT22;25517;52.422;10.782;2023-06-10T00:12:15;16.00;99.90
39847;DHT22;25517;52.422;10.782;2023-06-10T00:14:42;16.00;99.90
39847;DHT22;25517;52.422;10.782;2023-06-10T00:17:11;15.90;99.90
39847;DHT22;25517;52.422;10.782;2023-06-10T00:19:40;15.90;99.90
39847;DHT22;25517;52.422;10.782;2023-06-10T00:22:12;15.80;99.90
39847;DHT22;25517;52.422;10.782;2023-06-10T00:24:38;15.70;99.90
39847;DHT22;25517;52.422;10.782;2023-06-10T00:27:04;15.60;99.90
39847;DHT22;25517;52.422;10.782;2023-06-10T00:29:30;15.60;99.90
39847;DHT22;25517;52.422;10.782;2023-06-10T00:31:56;15.50;99.90
39847;DHT22;25517;52.422;10.782;2023-06-10T00:34:25;15.50;99.90
39847;DHT22;25517;52.422;10.782;2023-06-10T00:36:51;15.40;99.90
39847;DHT22;25517;52.422;10.782;2023-06-10T00:39:22;15.40;99.90
39847;DHT22;25517;52.422;10.782;2023-06-10T00:41:48;15.30;99.90
39847;DHT22;25517;52.422;10.782;2023-06-10T00:44:13;15.30;99.90
39847;DHT22;25517;52.422;10.782;2023-06-10T00:46:39;15.20;99.90
39847;DHT22;25517;52.422;10.782;2023-06-10T00:49:05;15.10;99.90
39847;DHT22;25517;52.422;10.782;2023-06-10T00:51:31;15.10;99.90
39847;DHT22;25517;52.422;10.782;2023-06-10T00:53:57;15.10;99.90
39847;DHT22;25517;52.422;10.782;2023-06-10T00:56:23;15.00;99.90
39847;DHT22;25517;52.422;10.782;2023-06-10T00:58:48;15.00;99.90
39847;DHT22;25517;52.422;10.782;2023-06-10T01:01:14;15.00;99.90
39847;DHT22;25517;52.422;10.782;2023-06-10T01:03:39;14.90;99.90
39847;DHT22;25517;52.422;10.782;2023-06-10T01:06:29;14.90;99.90
39847;DHT22;25517;52.422;10.782;2023-06-10T01:12:03;14.80;99.90
39847;DHT22;25517;52.422;10.782;2023-06-10T01:14:35;14.80;99.90
39847;DHT22;25517;52.422;10.782;2023-06-10T01:17:01;14.60;99.90
39847;DHT22;25517;52.422;10.782;2023-06-10T01:19:28;14.60;99.90
39847;DHT22;25517;52.422;10.782;2023-06-10T01:21:56;14.50;99.90
39847;DHT22;25517;52.422;10.782;2023-06-10T01:24:26;14.50;99.90
39847;DHT22;25517;52.422;10.782;2023-06-10T01:26:52;14.50;99.90
39847;DHT22;25517;52.422;10.782;2023-06-10T01:29:31;14.50;99.90
39847;DHT22;25517;52.422;10.782;2023-06-10T01:32:06;14.40;99.90
39847;DHT22;25517;52.422;10.782;2023-06-10T01:34:33;14.40;99.90
39847;DHT22;25517;52.422;10.782;2023-06-10T01:37:01;14.40;99.90
39847;DHT22;25517;52.422;10.782;2023-06-10T01:39:27;14.30;99.90
39847;DHT22;25517;52.422;10.782;2023-06-10T01:41:54;14.30;99.90
39847;DHT22;25517;52.422;10.782;2023-06-10T01:44:22;14.20;99.90
39847;DHT22;25517;52.422;10.782;2023-06-10T01:46:48;14.20;99.90
39847;DHT22;25517;52.422;10.782;2023-06-10T01:49:15;14.10;99.90
39847;DHT22;25517;52.422;10.782;2023-06-10T01:51:40;14.10;99.90
39847;DHT22;25517;52.422;10.782;2023-06-10T01:54:06;14.00;99.90
39847;DHT22;25517;52.422;10.782;2023-06-10T01:56:32;14.00;99.90
39847;DHT22;25517;52.422;10.782;2023-06-10T01:58:58;14.00;99.90
39847;DHT22;25517;52.422;10.782;2023-06-10T02:01:27;14.00;99.90
39847;DHT22;25517;52.422;10.782;2023-06-10T02:03:53;14.00;99.90
39847;DHT22;25517;52.422;10.782;2023-06-10T02:06:19;14.00;99.90
39847;DHT22;25517;52.422;10.782;2023-06-10T02:08:45;14.00;99.90
39847;DHT22;25517;52.422;10.782;2023-06-10T02:11:11;13.90;99.90
39847;DHT22;25517;52.422;10.782;2023-06-10T02:13:38;13.90;99.90
39847;DHT22;25517;52.422;10.782;2023-06-10T02:16:04;13.90;99.90
39847;DHT22;25517;52.422;10.782;2023-06-10T02:18:31;13.90;99.90
39847;DHT22;25517;52.422;10.782;2023-06-10T02:20:56;13.90;99.90
39847;DHT22;25517;52.422;10.782;2023-06-10T02:23:22;13.80;99.90
39847;DHT22;25517;52.422;10.782;2023-06-10T02:25:48;13.80;99.90
39847;DHT22;25517;52.422;10.782;2023-06-10T02:28:17;13.70;99.90
39847;DHT22;25517;52.422;10.782;2023-06-10T02:30:43;13.70;99.90
39847;DHT22;25517;52.422;10.782;2023-06-10T02:33:09;13.70;99.90
39847;DHT22;25517;52.422;10.782;2023-06-10T02:35:40;13.70;99.90
39847;DHT22;25517;52.422;10.782;2023-06-10T02:38:06;13.60;99.90
39847;DHT22;25517;52.422;10.782;2023-06-10T02:40:32;13.60;99.90
39847;DHT22;25517;52.422;10.782;2023-06-10T02:42:58;13.50;99.90
39847;DHT22;25517;52.422;10.782;2023-06-10T02:45:24;13.60;99.90
39847;DHT22;25517;52.422;10.782;2023-06-10T02:47:49;13.50;99.90
39847;DHT22;25517;52.422;10.782;2023-06-10T02:50:15;13.50;99.90
39847;DHT22;25517;52.422;10.782;2023-06-10T02:52:41;13.50;99.90
39847;DHT22;25517;52.422;10.782;2023-06-10T02:55:07;13.50;99.90
39847;DHT22;25517;52.422;10.782;2023-06-10T02:57:33;13.50;99.90
39847;DHT22;25517;52.422;10.782;2023-06-10T02:59:58;13.50;99.90
39847;DHT22;25517;52.422;10.782;2023-06-10T03:02:24;13.40;99.90
39847;DHT22;25517;52.422;10.782;2023-06-10T03:04:55;13.30;99.90
39847;DHT22;25517;52.422;10.782;2023-06-10T03:07:20;13.30;99.90
39847;DHT22;25517;52.422;10.782;2023-06-10T03:09:46;13.30;99.90
39847;DHT22;25517;52.422;10.782;2023-06-10T03:12:11;13.30;99.90
39847;DHT22;25517;52.422;10.782;2023-06-10T03:14:37;13.30;99.90
39847;DHT22;25517;52.422;10.782;2023-06-10T03:17:04;13.30;99.90
39847;DHT22;25517;52.422;10.782;2023-06-10T03:19:30;13.30;99.90
39847;DHT22;25517;52.422;10.782;2023-06-10T03:22:10;13.30;99.90
39847;DHT22;25517;52.422;10.782;2023-06-10T03:24:36;13.30;99.90
39847;DHT22;25517;52.422;10.782;2023-06-10T03:27:08;13.30;99.90
39847;DHT22;25517;52.422;10.782;2023-06-10T03:29:35;13.30;99.90
39847;DHT22;25517;52.422;10.782;2023-06-10T03:32:01;13.30;99.90
39847;DHT22;25517;52.422;10.782;2023-06-10T03:34:26;13.30;99.90
39847;DHT22;25517;52.422;10.782;2023-06-10T03:36:52;13.30;99.90
39847;DHT22;25517;52.422;10.782;2023-06-10T03:39:17;13.30;99.90
39847;DHT22;25517;52.422;10.782;2023-06-10T03:41:43;13.20;99.90
39847;DHT22;25517;52.422;10.782;2023-06-10T03:44:08;13.30;99.90
39847;DHT22;25517;52.422;10.782;2023-06-10T03:46:34;13.30;99.90
39847;DHT22;25517;52.422;10.782;2023-06-10T03:48:59;13.20;99.90
39847;DHT22;25517;52.422;10.782;2023-06-10T03:51:29;13.20;99.90
39847;DHT22;25517;52.422;10.782;2023-06-10T03:53:54;13.20;99.90
39847;DHT22;25517;52.422;10.782;2023-06-10T03:56:20;13.20;99.90
39847;DHT22;25517;52.422;10.782;2023-06-10T03:58:45;13.20;99.90
39847;DHT22;25517;52.422;10.782;2023-06-10T04:01:11;13.20;99.90
39847;DHT22;25517;52.422;10.782;2023-06-10T04:03:38;13.20;99.90
39847;DHT22;25517;52.422;10.782;2023-06-10T04:06:04;13.30;99.90
39847;DHT22;25517;52.422;10.782;2023-06-10T04:08:30;13.30;99.90
39847;DHT22;25517;52.422;10.782;2023-06-10T04:10:56;13.30;99.90
39847;DHT22;25517;52.422;10.782;2023-06-10T04:13:23;13.30;99.90
39847;DHT22;25517;52.422;10.782;2023-06-10T04:15:48;13.30;99.90
39847;DHT22;25517;52.422;10.782;2023-06-10T04:18:14;13.30;99.90
39847;DHT22;25517;52.422;10.782;2023-06-10T04:20:40;13.40;99.90
39847;DHT22;25517;52.422;10.782;2023-06-10T04:23:06;13.40;99.90
39847;DHT22;25517;52.422;10.782;2023-06-10T04:25:31;13.50;99.90
39847;DHT22;25517;52.422;10.782;2023-06-10T04:27:57;13.50;99.90
39847;DHT22;25517;52.422;10.782;2023-06-10T04:30:22;13.50;99.90
39847;DHT22;25517;52.422;10.782;2023-06-10T04:32:48;13.60;99.90
39847;DHT22;25517;52.422;10.782;2023-06-10T04:35:16;13.60;99.90
39847;DHT22;25517;52.422;10.782;2023-06-10T04:37:41;13.60;99.90
39847;DHT22;25517;52.422;10.782;2023-06-10T04:40:08;13.60;99.90
39847;DHT22;25517;52.422;10.782;2023-06-10T04:42:34;13.60;99.90
39847;DHT22;25517;52.422;10.782;2023-06-10T04:45:00;13.70;99.90
39847;DHT22;25517;52.422;10.782;2023-06-10T04:47:26;13.70;99.90
39847;DHT22;25517;52.422;10.782;2023-06-10T04:49:52;13.80;99.90
39847;DHT22;25517;52.422;10.782;2023-06-10T04:52:17;13.80;99.90
39847;DHT22;25517;52.422;10.782;2023-06-10T04:54:43;13.80;99.90
39847;DHT22;25517;52.422;10.782;2023-06-10T04:57:09;13.80;99.90
39847;DHT22;25517;52.422;10.782;2023-06-10T04:59:34;13.80;99.90
39847;DHT22;25517;52.422;10.782;2023-06-10T05:02:04;13.90;99.90
39847;DHT22;25517;52.422;10.782;2023-06-10T05:04:30;14.00;99.90
39847;DHT22;25517;52.422;10.782;2023-06-10T05:06:55;14.00;99.90
39847;DHT22;25517;52.422;10.782;2023-06-10T05:09:21;14.00;99.90
39847;DHT22;25517;52.422;10.782;2023-06-10T05:11:46;14.10;99.90
39847;DHT22;25517;52.422;10.782;2023-06-10T05:14:12;14.10;99.90
39847;DHT22;25517;52.422;10.782;2023-06-10T05:16:38;14.20;99.90
39847;DHT22;25517;52.422;10.782;2023-06-10T05:19:04;14.20;99.90
39847;DHT22;25517;52.422;10.782;2023-06-10T05:21:30;14.30;99.90
39847;DHT22;25517;52.422;10.782;2023-06-10T05:23:55;14.40;99.90
39847;DHT22;25517;52.422;10.782;2023-06-10T05:26:21;14.40;99.90
39847;DHT22;25517;52.422;10.782;2023-06-10T05:28:47;14.40;99.90
39847;DHT22;25517;52.422;10.782;2023-06-10T05:31:13;14.40;99.90
39847;DHT22;25517;52.422;10.782;2023-06-10T05:33:39;14.50;99.90
39847;DHT22;25517;52.422;10.782;2023-06-10T05:36:05;14.50;99.90
39847;DHT22;25517;52.422;10.782;2023-06-10T05:38:30;14.50;99.90
39847;DHT22;25517;52.422;10.782;2023-06-10T05:40:56;14.60;99.90
39847;DHT22;25517;52.422;10.782;2023-06-10T05:43:22;14.60;99.90
39847;DHT22;25517;52.422;10.782;2023-06-10T05:45:48;14.60;99.90
39847;DHT22;25517;52.422;10.782;2023-06-10T05:48:13;14.70;99.90
39847;DHT22;25517;52.422;10.782;2023-06-10T05:50:39;14.70;99.90
39847;DHT22;25517;52.422;10.782;2023-06-10T05:53:07;14.70;99.90
39847;DHT22;25517;52.422;10.782;2023-06-10T05:55:43;14.70;99.90
39847;DHT22;25517;52.422;10.782;2023-06-10T05:58:08;14.80;99.90
39847;DHT22;25517;52.422;10.782;2023-06-10T06:00:34;14.90;99.90
39847;DHT22;25517;52.422;10.782;2023-06-10T06:02:59;14.90;99.90
39847;DHT22;25517;52.422;10.782;2023-06-10T06:05:25;14.90;99.90
39847;DHT22;25517;52.422;10.782;2023-06-10T06:07:51;14.90;99.90
39847;DHT22;25517;52.422;10.782;2023-06-10T06:10:19;15.00;99.90
39847;DHT22;25517;52.422;10.782;2023-06-10T06:12:45;15.10;99.90
39847;DHT22;25517;52.422;10.782;2023-06-10T06:15:11;15.20;99.90
39847;DHT22;25517;52.422;10.782;2023-06-10T06:17:36;15.30;99.90
39847;DHT22;25517;52.422;10.782;2023-06-10T06:20:03;15.40;99.90
39847;DHT22;25517;52.422;10.782;2023-06-10T06:22:29;15.40;99.90
39847;DHT22;25517;52.422;10.782;2023-06-10T06:24:55;15.50;99.90
39847;DHT22;25517;52.422;10.782;2023-06-10T06:27:20;15.60;99.90
39847;DHT22;25517;52.422;10.782;2023-06-10T06:29:46;15.60;99.90
39847;DHT22;25517;52.422;10.782;2023-06-10T06:32:12;15.70;99.90
39847;DHT22;25517;52.422;10.782;2023-06-10T06:34:38;15.90;99.90
39847;DHT22;25517;52.422;10.782;2023-06-10T06:37:04;15.90;99.90
39847;DHT22;25517;52.422;10.782;2023-06-10T06:39:29;16.00;99.90
39847;DHT22;25517;52.422;10.782;2023-06-10T06:41:55;16.10;99.90
39847;DHT22;25517;52.422;10.782;2023-06-10T06:44:20;16.10;99.90
39847;DHT22;25517;52.422;10.782;2023-06-10T06:46:46;16.10;99.90
39847;DHT22;25517;52.422;10.782;2023-06-10T06:49:11;16.20;99.90
39847;DHT22;25517;52.422;10.782;2023-06-10T06:51:37;16.30;99.90
39847;DHT22;25517;52.422;10.782;2023-06-10T06:54:02;16.50;99.90
39847;DHT22;25517;52.422;10.782;2023-06-10T06:56:28;16.60;99.90
39847;DHT22;25517;52.422;10.782;2023-06-10T06:58:54;16.70;99.90
39847;DHT22;25517;52.422;10.782;2023-06-10T07:01:19;16.90;99.90
39847;DHT22;25517;52.422;10.782;2023-06-10T07:03:45;17.00;99.90
39847;DHT22;25517;52.422;10.782;2023-06-10T07:06:10;17.10;99.90
39847;DHT22;25517;52.422;10.782;2023-06-10T07:08:36;17.30;99.90
39847;DHT22;25517;52.422;10.782;2023-06-10T07:11:01;17.30;99.90
39847;DHT22;25517;52.422;10.782;2023-06-10T07:13:27;17.30;99.90
39847;DHT22;25517;52.422;10.782;2023-06-10T07:15:52;17.40;99.90
39847;DHT22;25517;52.422;10.782;2023-06-10T07:18:18;17.60;99.90
39847;DHT22;25517;52.422;10.782;2023-06-10T07:20:44;17.70;99.90
39847;DHT22;25517;52.422;10.782;2023-06-10T07:23:09;17.80;99.90
39847;DHT22;25517;52.422;10.782;2023-06-10T07:25:35;17.90;99.90
39847;DHT22;25517;52.422;10.782;2023-06-10T07:28:00;18.10;99.90
39847;DHT22;25517;52.422;10.782;2023-06-10T07:30:26;18.20;99.90
39847;DHT22;25517;52.422;10.782;2023-06-10T07:32:51;18.10;99.90
39847;DHT22;25517;52.422;10.782;2023-06-10T07:35:17;18.20;99.90
39847;DHT22;25517;52.422;10.782;2023-06-10T07:37:42;18.30;99.90
39847;DHT22;25517;52.422;10.782;2023-06-10T07:40:08;18.40;99.90
39847;DHT22;25517;52.422;10.782;2023-06-10T07:42:37;18.70;99.90
39847;DHT22;25517;52.422;10.782;2023-06-10T07:45:04;18.90;99.90
39847;DHT22;25517;52.422;10.782;2023-06-10T07:47:30;18.90;99.90
39847;DHT22;25517;52.422;10.782;2023-06-10T07:49:56;19.00;99.90
39847;DHT22;25517;52.422;10.782;2023-06-10T07:52:21;19.20;99.90
39847;DHT22;25517;52.422;10.782;2023-06-10T07:54:47;19.40;99.90
39847;DHT22;25517;52.422;10.782;2023-06-10T07:57:12;19.50;99.90
39847;DHT22;25517;52.422;10.782;2023-06-10T07:59:38;19.80;99.90
39847;DHT22;25517;52.422;10.782;2023-06-10T08:02:04;20.00;99.90
39847;DHT22;25517;52.422;10.782;2023-06-10T08:04:30;20.20;99.90
39847;DHT22;25517;52.422;10.782;2023-06-10T08:06:56;20.40;99.90
39847;DHT22;25517;52.422;10.782;2023-06-10T08:09:22;20.70;99.90
39847;DHT22;25517;52.422;10.782;2023-06-10T08:11:48;21.20;99.90
39847;DHT22;25517;52.422;10.782;2023-06-10T08:14:14;22.40;99.90
39847;DHT22;25517;52.422;10.782;2023-06-10T08:16:40;23.70;97.40
39847;DHT22;25517;52.422;10.782;2023-06-10T08:19:05;24.70;95.50
39847;DHT22;25517;52.422;10.782;2023-06-10T08:21:31;25.50;93.10
39847;DHT22;25517;52.422;10.782;2023-06-10T08:23:56;26.50;91.30
39847;DHT22;25517;52.422;10.782;2023-06-10T08:26:22;27.20;88.80
39847;DHT22;25517;52.422;10.782;2023-06-10T08:28:47;27.60;83.60
39847;DHT22;25517;52.422;10.782;2023-06-10T08:31:13;27.70;82.00
39847;DHT22;25517;52.422;10.782;2023-06-10T08:33:39;28.70;79.60
39847;DHT22;25517;52.422;10.782;2023-06-10T08:36:04;29.20;77.60
39847;DHT22;25517;52.422;10.782;2023-06-10T08:38:30;29.70;76.00
39847;DHT22;25517;52.422;10.782;2023-06-10T08:40:58;30.40;73.00
39847;DHT22;25517;52.422;10.782;2023-06-10T08:43:32;30.60;71.80
39847;DHT22;25517;52.422;10.782;2023-06-10T08:46:00;30.60;69.70
39847;DHT22;25517;52.422;10.782;2023-06-10T08:48:29;31.10;69.70
39847;DHT22;25517;52.422;10.782;2023-06-10T08:50:57;31.90;67.20
39847;DHT22;25517;52.422;10.782;2023-06-10T08:53:24;32.60;66.30
39847;DHT22;25517;52.422;10.782;2023-06-10T08:55:51;33.00;63.60
39847;DHT22;25517;52.422;10.782;2023-06-10T08:58:20;33.80;62.30
39847;DHT22;25517;52.422;10.782;2023-06-10T09:00:46;33.70;61.60
39847;DHT22;25517;52.422;10.782;2023-06-10T09:03:12;34.50;61.80
39847;DHT22;25517;52.422;10.782;2023-06-10T09:05:38;34.80;60.00
39847;DHT22;25517;52.422;10.782;2023-06-10T09:08:05;34.60;59.40
39847;DHT22;25517;52.422;10.782;2023-06-10T09:10:32;34.70;59.30
39847;DHT22;25517;52.422;10.782;2023-06-10T09:12:58;34.90;58.80
39847;DHT22;25517;52.422;10.782;2023-06-10T09:15:23;34.80;59.00
39847;DHT22;25517;52.422;10.782;2023-06-10T09:17:49;34.90;58.50
39847;DHT22;25517;52.422;10.782;2023-06-10T09:20:16;35.00;57.90
39847;DHT22;25517;52.422;10.782;2023-06-10T09:22:42;34.60;58.10
39847;DHT22;25517;52.422;10.782;2023-06-10T09:25:10;34.90;58.10
39847;DHT22;25517;52.422;10.782;2023-06-10T09:27:47;35.70;57.10
39847;DHT22;25517;52.422;10.782;2023-06-10T09:32:56;35.70;56.40
39847;DHT22;25517;52.422;10.782;2023-06-10T09:35:26;35.00;57.30
39847;DHT22;25517;52.422;10.782;2023-06-10T09:37:57;35.00;58.50
39847;DHT22;25517;52.422;10.782;2023-06-10T09:40:23;35.00;57.70
39847;DHT22;25517;52.422;10.782;2023-06-10T09:42:54;34.50;57.50
39847;DHT22;25517;52.422;10.782;2023-06-10T09:45:20;34.60;57.90
39847;DHT22;25517;52.422;10.782;2023-06-10T09:47:47;35.30;58.10
39847;DHT22;25517;52.422;10.782;2023-06-10T09:50:13;36.10;56.40
39847;DHT22;25517;52.422;10.782;2023-06-10T09:52:41;36.60;56.30
39847;DHT22;25517;52.422;10.782;2023-06-10T09:55:08;36.40;56.30
39847;DHT22;25517;52.422;10.782;2023-06-10T09:57:34;36.60;55.40
39847;DHT22;25517;52.422;10.782;2023-06-10T10:00:08;36.40;55.30
39847;DHT22;25517;52.422;10.782;2023-06-10T10:02:50;36.90;54.40
39847;DHT22;25517;52.422;10.782;2023-06-10T10:05:18;37.20;54.00
39847;DHT22;25517;52.422;10.782;2023-06-10T10:07:45;37.10;54.40
39847;DHT22;25517;52.422;10.782;2023-06-10T10:10:11;36.70;54.30
39847;DHT22;25517;52.422;10.782;2023-06-10T10:12:39;37.20;54.20
39847;DHT22;25517;52.422;10.782;2023-06-10T10:15:10;37.50;52.80
39847;DHT22;25517;52.422;10.782;2023-06-10T10:17:41;37.70;53.20
39847;DHT22;25517;52.422;10.782;2023-06-10T10:20:11;37.70;52.40
39847;DHT22;25517;52.422;10.782;2023-06-10T10:22:38;38.20;51.90
39847;DHT22;25517;52.422;10.782;2023-06-10T10:25:13;38.10;52.00
39847;DHT22;25517;52.422;10.782;2023-06-10T10:27:54;38.10;51.10
39847;DHT22;25517;52.422;10.782;2023-06-10T10:30:22;38.40;50.20
39847;DHT22;25517;52.422;10.782;2023-06-10T10:32:58;38.30;52.40
39847;DHT22;25517;52.422;10.782;2023-06-10T10:35:27;38.70;50.20
39847;DHT22;25517;52.422;10.782;2023-06-10T10:38:02;39.30;50.10
39847;DHT22;25517;52.422;10.782;2023-06-10T10:40:28;39.00;50.70
39847;DHT22;25517;52.422;10.782;2023-06-10T10:42:56;39.20;50.40
39847;DHT22;25517;52.422;10.782;2023-06-10T10:45:22;39.00;50.00
39847;DHT22;25517;52.422;10.782;2023-06-10T10:47:53;38.50;50.40
39847;DHT22;25517;52.422;10.782;2023-06-10T10:50:20;39.50;49.50
39847;DHT22;25517;52.422;10.782;2023-06-10T10:53:01;39.80;49.30
39847;DHT22;25517;52.422;10.782;2023-06-10T10:55:27;39.30;50.10
39847;DHT22;25517;52.422;10.782;2023-06-10T11:00:42;39.00;50.30
39847;DHT22;25517;52.422;10.782;2023-06-10T11:03:16;38.50;50.50
39847;DHT22;25517;52.422;10.782;2023-06-10T11:05:47;39.10;50.00
39847;DHT22;25517;52.422;10.782;2023-06-10T11:11:23;38.70;50.60
39847;DHT22;25517;52.422;10.782;2023-06-10T11:16:39;38.50;51.10
39847;DHT22;25517;52.422;10.782;2023-06-10T11:19:08;38.80;50.90
39847;DHT22;25517;52.422;10.782;2023-06-10T11:22:01;38.80;51.10
39847;DHT22;25517;52.422;10.782;2023-06-10T11:24:30;38.90;50.00
39847;DHT22;25517;52.422;10.782;2023-06-10T11:27:15;38.70;50.60
39847;DHT22;25517;52.422;10.782;2023-06-10T11:32:32;38.80;49.30
39847;DHT22;25517;52.422;10.782;2023-06-10T11:34:58;38.70;50.80
39847;DHT22;25517;52.422;10.782;2023-06-10T11:37:24;38.90;49.90
39847;DHT22;25517;52.422;10.782;2023-06-10T11:39:54;39.50;49.30
39847;DHT22;25517;52.422;10.782;2023-06-10T11:42:20;38.90;50.70
39847;DHT22;25517;52.422;10.782;2023-06-10T11:44:50;38.80;50.20
39847;DHT22;25517;52.422;10.782;2023-06-10T11:47:16;38.80;50.00
39847;DHT22;25517;52.422;10.782;2023-06-10T11:49:42;39.00;50.40
39847;DHT22;25517;52.422;10.782;2023-06-10T11:52:08;38.50;49.40
39847;DHT22;25517;52.422;10.782;2023-06-10T11:54:34;38.30;50.50
39847;DHT22;25517;52.422;10.782;2023-06-10T11:57:00;38.30;50.00
39847;DHT22;25517;52.422;10.782;2023-06-10T11:59:29;38.00;50.80
39847;DHT22;25517;52.422;10.782;2023-06-10T12:01:55;37.50;51.80
39847;DHT22;25517;52.422;10.782;2023-06-10T12:04:22;37.00;52.30
39847;DHT22;25517;52.422;10.782;2023-06-10T12:09:19;36.00;53.30
39847;DHT22;25517;52.422;10.782;2023-06-10T12:11:52;35.60;54.20
39847;DHT22;25517;52.422;10.782;2023-06-10T12:14:55;35.30;54.70
39847;DHT22;25517;52.422;10.782;2023-06-10T12:19:49;34.90;54.30
39847;DHT22;25517;52.422;10.782;2023-06-10T12:22:15;34.60;54.50
39847;DHT22;25517;52.422;10.782;2023-06-10T12:25:06;34.50;55.70
39847;DHT22;25517;52.422;10.782;2023-06-10T12:27:33;34.40;55.40
39847;DHT22;25517;52.422;10.782;2023-06-10T12:30:04;34.10;54.10
39847;DHT22;25517;52.422;10.782;2023-06-10T12:32:44;34.00;55.20
39847;DHT22;25517;52.422;10.782;2023-06-10T12:35:12;34.10;54.00
39847;DHT22;25517;52.422;10.782;2023-06-10T12:37:39;33.80;54.90
39847;DHT22;25517;52.422;10.782;2023-06-10T12:40:05;33.50;54.10
39847;DHT22;25517;52.422;10.782;2023-06-10T12:42:32;33.20;54.90
39847;DHT22;25517;52.422;10.782;2023-06-10T12:45:02;32.90;55.00
39847;DHT22;25517;52.422;10.782;2023-06-10T12:47:35;33.00;55.60
39847;DHT22;25517;52.422;10.782;2023-06-10T12:50:04;33.00;55.60
39847;DHT22;25517;52.422;10.782;2023-06-10T12:52:31;32.90;55.50
39847;DHT22;25517;52.422;10.782;2023-06-10T12:54:58;32.90;57.00
39847;DHT22;25517;52.422;10.782;2023-06-10T12:57:24;32.90;57.20
39847;DHT22;25517;52.422;10.782;2023-06-10T12:59:50;33.00;57.60
39847;DHT22;25517;52.422;10.782;2023-06-10T13:02:21;33.10;56.00
39847;DHT22;25517;52.422;10.782;2023-06-10T13:04:50;33.20;56.90
39847;DHT22;25517;52.422;10.782;2023-06-10T13:07:16;33.00;56.10
39847;DHT22;25517;52.422;10.782;2023-06-10T13:09:43;33.20;56.90
39847;DHT22;25517;52.422;10.782;2023-06-10T13:12:09;33.10;56.90
39847;DHT22;25517;52.422;10.782;2023-06-10T13:14:35;33.10;56.60
39847;DHT22;25517;52.422;10.782;2023-06-10T13:17:03;33.20;57.20
39847;DHT22;25517;52.422;10.782;2023-06-10T13:19:31;33.10;57.00
39847;DHT22;25517;52.422;10.782;2023-06-10T13:21:57;33.00;56.70
39847;DHT22;25517;52.422;10.782;2023-06-10T13:24:22;32.90;57.20
39847;DHT22;25517;52.422;10.782;2023-06-10T13:26:48;32.40;57.10
39847;DHT22;25517;52.422;10.782;2023-06-10T13:29:14;32.20;57.80
39847;DHT22;25517;52.422;10.782;2023-06-10T13:31:41;32.20;57.50
39847;DHT22;25517;52.422;10.782;2023-06-10T13:34:08;32.10;58.10
39847;DHT22;25517;52.422;10.782;2023-06-10T13:36:34;32.30;58.70
39847;DHT22;25517;52.422;10.782;2023-06-10T13:39:00;32.40;57.90
39847;DHT22;25517;52.422;10.782;2023-06-10T13:41:25;32.50;58.00
39847;DHT22;25517;52.422;10.782;2023-06-10T13:43:54;32.60;57.40
39847;DHT22;25517;52.422;10.782;2023-06-10T13:46:20;32.50;57.00
39847;DHT22;25517;52.422;10.782;2023-06-10T13:48:47;32.50;56.60
39847;DHT22;25517;52.422;10.782;2023-06-10T13:51:12;32.60;56.60
39847;DHT22;25517;52.422;10.782;2023-06-10T13:53:38;32.50;56.80
39847;DHT22;25517;52.422;10.782;2023-06-10T13:56:04;32.50;57.10
39847;DHT22;25517;52.422;10.782;2023-06-10T13:58:30;32.50;57.70
39847;DHT22;25517;52.422;10.782;2023-06-10T14:00:57;32.30;56.80
39847;DHT22;25517;52.422;10.782;2023-06-10T14:03:24;32.50;57.40
39847;DHT22;25517;52.422;10.782;2023-06-10T14:05:50;32.60;57.30
39847;DHT22;25517;52.422;10.782;2023-06-10T14:08:15;32.30;57.30
39847;DHT22;25517;52.422;10.782;2023-06-10T14:10:42;32.20;57.70
39847;DHT22;25517;52.422;10.782;2023-06-10T14:13:07;32.30;57.00
39847;DHT22;25517;52.422;10.782;2023-06-10T14:15:33;32.30;57.10
39847;DHT22;25517;52.422;10.782;2023-06-10T14:17:59;32.20;56.70
39847;DHT22;25517;52.422;10.782;2023-06-10T14:20:24;31.80;56.30
39847;DHT22;25517;52.422;10.782;2023-06-10T14:22:52;31.30;57.60
39847;DHT22;25517;52.422;10.782;2023-06-10T14:25:17;31.10;58.60
39847;DHT22;25517;52.422;10.782;2023-06-10T14:27:43;30.80;59.70
39847;DHT22;25517;52.422;10.782;2023-06-10T14:30:09;30.60;59.80
39847;DHT22;25517;52.422;10.782;2023-06-10T14:32:36;30.40;59.80
39847;DHT22;25517;52.422;10.782;2023-06-10T14:35:02;30.20;59.80
39847;DHT22;25517;52.422;10.782;2023-06-10T14:37:28;30.10;61.40
39847;DHT22;25517;52.422;10.782;2023-06-10T14:39:54;30.00;63.30
39847;DHT22;25517;52.422;10.782;2023-06-10T14:42:19;29.70;62.70
39847;DHT22;25517;52.422;10.782;2023-06-10T14:44:45;29.60;62.00
39847;DHT22;25517;52.422;10.782;2023-06-10T14:47:10;29.60;61.80
39847;DHT22;25517;52.422;10.782;2023-06-10T14:49:36;29.40;61.50
39847;DHT22;25517;52.422;10.782;2023-06-10T14:52:02;29.40;61.90
39847;DHT22;25517;52.422;10.782;2023-06-10T14:54:28;29.30;61.20
39847;DHT22;25517;52.422;10.782;2023-06-10T14:56:53;29.20;60.90
39847;DHT22;25517;52.422;10.782;2023-06-10T14:59:19;29.10;61.00
39847;DHT22;25517;52.422;10.782;2023-06-10T15:01:44;29.10;61.30
39847;DHT22;25517;52.422;10.782;2023-06-10T15:04:10;29.00;60.50
39847;DHT22;25517;52.422;10.782;2023-06-10T15:06:36;29.00;60.00
39847;DHT22;25517;52.422;10.782;2023-06-10T15:09:01;28.90;60.00
39847;DHT22;25517;52.422;10.782;2023-06-10T15:11:27;28.80;61.00
39847;DHT22;25517;52.422;10.782;2023-06-10T15:13:53;28.80;60.30
39847;DHT22;25517;52.422;10.782;2023-06-10T15:16:19;28.80;61.20
39847;DHT22;25517;52.422;10.782;2023-06-10T15:18:44;28.70;61.80
39847;DHT22;25517;52.422;10.782;2023-06-10T15:21:10;28.70;63.10
39847;DHT22;25517;52.422;10.782;2023-06-10T15:23:36;28.60;61.70
39847;DHT22;25517;52.422;10.782;2023-06-10T15:26:02;28.70;62.10
39847;DHT22;25517;52.422;10.782;2023-06-10T15:28:28;28.90;62.50
39847;DHT22;25517;52.422;10.782;2023-06-10T15:30:53;29.10;62.10
39847;DHT22;25517;52.422;10.782;2023-06-10T15:33:18;29.40;61.30
39847;DHT22;25517;52.422;10.782;2023-06-10T15:35:44;29.70;61.30
39847;DHT22;25517;52.422;10.782;2023-06-10T15:38:09;29.90;60.60